x

West Sea Otter (46204) Wave Buoy

10:00pm - Sat 21st Oct 2017 All times are PDT. -7 hours from GMT.

  • Sig Wave height 7.5ft
  • Peak Period 8s
  • Wind
    22mph, 31mph gusts
  • Sea Temp 51°f
  • Air Temp 51°f
  • Sea Pressure 990.8mb
  • West Sea Otter
  • West Sea Otter

More Historic Weather Station data

Upgrade to MSW Pro to gain access to the past 30 days of data for over 8000 Wavebouys and Weather Stations around the globe.

Join

Comparision Forecast

View Surf forecast
   
Sat 10/21 10:00pm 7.5ft 8s 22 31 mph 990.8mb 51f 51f
9:00pm 8ft 7s 16 18 mph 991.1mb 51f 52f
8:00pm 9ft 8s 11 16 mph 991.1mb 51f 52f
7:00pm 9.5ft 8s 16 20 mph 990.7mb 51f 51f
6:00pm 13ft 9s 18 22 mph 989.4mb 51f 51f
5:00pm 13ft 7s 27 36 mph 988.1mb 51f 50f
4:00pm 15ft 8s 40 56 mph 987.4mb 51f 48f
3:00pm 15ft 8s 43 56 mph 986.9mb 51f 48f
2:00pm 14ft 8s 43 56 mph 989.1mb 51f 48f
1:00pm 15ft 8s 40 49 mph 990.9mb 51f 48f
12:00pm 14.5ft 8s 38 47 mph 991.9mb 51f 49f
11:00am 15ft 8s 43 54 mph 992.6mb 51f 47f
10:00am 14ft 8s 43 54 mph 993mb 51f 48f
9:00am 13.5ft 8s 43 54 mph 993.5mb 51f 48f
8:00am 13ft 8s 40 49 mph 994.4mb 51f 48f
6:00am 12ft 7s 40 49 mph 996.3mb 51f 49f
5:00am 11.5ft 7s 40 49 mph 997.4mb 51f 49f
4:00am 10.5ft 13s 36 45 mph 998.8mb 51f 48f
3:00am 11ft 12s 34 43 mph 1000.2mb 51f 48f
2:00am 9.5ft 13s 31 40 mph 1001.4mb 51f 48f
1:00am 10ft 12s 29 38 mph 1002.4mb 51f 48f
12:00am 10ft 12s 29 34 mph 1003.3mb 51f 48f
Fri 10/20 11:00pm 10.5ft 13s 25 31 mph 1004.1mb 51f 48f
10:00pm 10.5ft 12s 25 31 mph 1004.7mb 51f 49f
9:00pm 10ft 12s 18 22 mph 1005.2mb 51f 49f
8:00pm 10ft 12s 16 20 mph 1005.5mb 51f 50f
7:00pm 9ft 14s 16 18 mph 1005.5mb 51f 49f
6:00pm 9.5ft 11s 16 20 mph 1005.5mb 51f 49f
5:00pm 9.5ft 11s 4 9 mph 1005.3mb 51f 48f
4:00pm 10ft 12s 2 7 mph 1005.2mb 51f 47f
3:00pm 10ft 14s 4 9 mph 1004.9mb 52f 47f
2:00pm 11ft 10s 18 25 mph 1004.5mb 51f 48f
1:00pm 12ft 13s 13 16 mph 1004.4mb 52f 50f
12:00pm 13ft 12s 13 18 mph 1003.8mb 51f 50f
11:00am 14ft 15s 11 20 mph 1003.4mb 51f 50f
10:00am 13ft 14s 13 18 mph 1002.6mb 51f 50f
9:00am 15.5ft 14s 18 25 mph 1001.9mb 51f 50f
8:00am 15ft 14s 18 27 mph 1000.8mb 51f 50f
7:00am 16ft 13s 18 22 mph 1000.2mb 51f 50f
6:00am 14.5ft 14s 22 25 mph 999.2mb 51f 49f
5:00am 13ft 14s 16 20 mph 998.6mb 52f 49f
4:00am 15ft 15s 18 22 mph 997.7mb 52f 49f
3:00am 14ft 16s 20 27 mph 997.1mb 52f 49f
2:00am 12.5ft 15s 18 22 mph 996.4mb 51f 49f
1:00am 13ft 16s 11 16 mph 995.8mb 51f 50f
12:00am 13.5ft 16s 11 13 mph 995.6mb 51f 50f
Thu 10/19 11:00pm 14ft 16s 9 13 mph 995.1mb 51f 51f
10:00pm 15.5ft 16s 11 13 mph 994.6mb 51f 50f
9:00pm 16ft 16s 13 22 mph 994.1mb 51f 50f
8:00pm 17.5ft 16s 13 18 mph 993.5mb 51f 50f
7:00pm 17ft 17s 16 25 mph 992.7mb 52f 51f
6:00pm 18ft 15s 16 25 mph 992.2mb 52f 50f
5:00pm 18.5ft 15s 13 18 mph 991.7mb 52f 52f
4:00pm 18.5ft 15s 18 22 mph 991mb 52f 53f
3:00pm 18ft 14s 18 25 mph 990.4mb 52f 52f
2:00pm 18.5ft 14s 16 20 mph 990mb 52f 51f
1:00pm 18.5ft 16s 13 20 mph 989.7mb 51f 51f
12:00pm 19.5ft 14s 18 22 mph 989.3mb 51f 51f
11:00am 20.5ft 16s 16 22 mph 989.2mb 51f 52f
10:00am 20.5ft 17s 22 27 mph 988.6mb 51f 52f
9:00am 19.5ft 15s 20 25 mph 988.3mb 51f 52f
7:00am 19.5ft 16s 18 27 mph 987.7mb 51f 51f
5:00am 17.5ft 14s 18 25 mph 987mb 52f 52f
4:00am 17.5ft 14s 20 25 mph 987mb 51f 53f
3:00am 18.5ft 11s 22 27 mph 986.4mb 51f 53f
2:00am 17.5ft 12s 27 31 mph 985.1mb 51f 53f
1:00am 16ft 11s 31 40 mph 984.1mb 51f 53f
12:00am 15.5ft 10s 34 43 mph 983.3mb 51f 53f
Wed 10/18 11:00pm 15.5ft 10s 31 38 mph 983.8mb 51f 53f
10:00pm 15ft 10s 27 36 mph 984.5mb 51f 52f
9:00pm 13ft 10s 29 36 mph 984.9mb 51f 53f
8:00pm 14ft 9s 27 34 mph 985.3mb 51f 52f
7:00pm 12.5ft 10s 27 36 mph 985.5mb 51f 53f
6:00pm 12ft 10s 27 36 mph 986mb 51f 52f
5:00pm 11.5ft 10s 18 25 mph 986.8mb 51f 52f
4:00pm 11ft 12s 20 27 mph 987.1mb 51f 53f
3:00pm 12ft 11s 13 18 mph 987.9mb 51f 53f
2:00pm 13ft 11s 22 27 mph 988mb 51f 51f
1:00pm 14ft 8s 29 36 mph 987.9mb 51f 49f
12:00pm 15ft 11s 34 43 mph 987.6mb 51f 48f
11:00am 17.5ft 9s 38 45 mph 987.9mb 51f 47f
10:00am 18.5ft 10s 36 49 mph 989mb 51f 46f
9:00am 20.5ft 10s 40 51 mph 989.6mb 51f 46f
8:00am 20.5ft 9s 45 54 mph 990.4mb 51f 46f
7:00am  -   -  47
mph
990mb 52f 47f